YZF weather

Yellowknife Airport
Yellowknife, Northwest Territories, Canada

Public forecast

Using degrees Celsius for public forecast. Weather courtesy of forecast.io.

METAR (pilot weather report)

Retrieved 2019/07/19 12:00 UTC (20 minutes ago):

CYZF 191200Z 08007KT 15SM FEW250 12/07 A2988 RMK CI1 CI TR SLP126

TAF (pilot weather forecast)

Retrieved 2019/07/19 12:42 UTC (0 seconds ago):

TAF TAF CYZF 191138Z 1912/2012 06007KT P6SM FEW040 SCT250 FM192100 17005KT P6SM FEW220 RMK NXT FCST BY 191800Z